Time;durP1;ratioP1;P1;durP2;ratioP2;P2;SDS_P1;SDS_P2;PMS_P1;PMS_P2;Temp;Humidity;BMP_temperature;BMP_pressure;BME280_temperature;BME280_humidity;BME280_pressure;Samples;Min_cycle;Max_cycle;Signal;HPM_P1;HPM_P2
2024/03/30 00:00:53;;;;;;;13.87;6.00;;;10.80;82.20;;;;;;5002073;28;20418;-73
2024/03/30 00:03:19;;;;;;;24.33;6.67;;;10.70;82.20;;;;;;5000644;28;20460;-74
2024/03/30 00:05:45;;;;;;;17.77;5.50;;;10.80;82.20;;;;;;5003604;28;20416;-74
2024/03/30 00:08:13;;;;;;;16.03;6.10;;;10.80;82.20;;;;;;4997573;28;21026;-73
2024/03/30 00:10:40;;;;;;;24.67;8.30;;;10.80;82.10;;;;;;5003966;28;20451;-72
2024/03/30 00:13:10;;;;;;;18.37;5.80;;;10.70;82.10;;;;;;4999807;28;20449;-72
2024/03/30 00:15:36;;;;;;;23.53;5.50;;;10.70;82.40;;;;;;5004803;28;20424;-73
2024/03/30 00:18:02;;;;;;;25.93;5.43;;;10.70;82.40;;;;;;5006568;28;20783;-74
2024/03/30 00:20:28;;;;;;;19.43;5.43;;;10.60;82.40;;;;;;5002644;28;20428;-74
2024/03/30 00:22:54;;;;;;;15.60;5.87;;;10.60;82.10;;;;;;4995511;28;20496;-74
2024/03/30 00:25:26;;;;;;;17.53;5.50;;;10.60;82.10;;;;;;5005577;28;20953;-73
2024/03/30 00:27:51;;;;;;;13.43;5.40;;;10.60;81.90;;;;;;5001686;28;20201;-73
2024/03/30 00:30:17;;;;;;;16.30;5.13;;;10.60;81.90;;;;;;5002996;28;20421;-74
2024/03/30 00:32:43;;;;;;;22.23;8.57;;;10.70;81.70;;;;;;5001716;28;20726;-73
2024/03/30 00:35:09;;;;;;;28.73;7.43;;;10.60;81.20;;;;;;4999468;28;20436;-74
2024/03/30 00:37:34;;;;;;;21.60;6.27;;;10.60;81.40;;;;;;5003181;28;20181;-72
2024/03/30 00:40:00;;;;;;;23.73;6.37;;;10.60;81.20;;;;;;5006451;28;20243;-73
2024/03/30 00:42:26;;;;;;;25.67;5.77;;;10.60;81.20;;;;;;5003036;28;20214;-72
2024/03/30 00:44:52;;;;;;;16.00;5.50;;;10.60;81.10;;;;;;5000650;28;20202;-70
2024/03/30 00:47:18;;;;;;;11.17;5.30;;;10.70;81.10;;;;;;5006413;28;20871;-71
2024/03/30 00:49:44;;;;;;;22.63;5.77;;;10.70;80.80;;;;;;5006814;28;20303;-73
2024/03/30 00:52:09;;;;;;;14.70;6.00;;;10.70;80.50;;;;;;5000313;28;20472;-72
2024/03/30 00:54:35;;;;;;;19.10;5.63;;;10.80;80.30;;;;;;5008324;28;20556;-72
2024/03/30 00:57:00;;;;;;;20.13;5.23;;;10.70;80.30;;;;;;5006561;28;20655;-70
2024/03/30 00:59:26;;;;;;;19.30;5.77;;;10.60;80.30;;;;;;5003173;28;20197;-71
2024/03/30 01:01:52;;;;;;;21.63;4.90;;;10.60;80.50;;;;;;5005775;28;20209;-72
2024/03/30 01:04:17;;;;;;;22.13;7.33;;;10.60;80.30;;;;;;5009800;28;20744;-72
2024/03/30 01:06:43;;;;;;;15.53;5.13;;;10.60;80.20;;;;;;5010586;28;20205;-72
2024/03/30 01:09:09;;;;;;;21.67;5.53;;;10.60;80.30;;;;;;5010108;28;20204;-71
2024/03/30 01:11:36;;;;;;;15.83;5.37;;;10.60;80.30;;;;;;5003229;28;20208;-72
2024/03/30 01:14:05;;;;;;;24.80;5.67;;;10.60;80.50;;;;;;5006127;28;20189;-72
2024/03/30 01:16:31;;;;;;;19.50;5.00;;;10.70;80.00;;;;;;5010366;28;20460;-72
2024/03/30 01:18:57;;;;;;;25.80;6.50;;;10.60;80.00;;;;;;5009718;28;20508;-70
2024/03/30 01:21:23;;;;;;;21.57;6.00;;;10.50;80.30;;;;;;5008544;28;20908;-71
2024/03/30 01:23:49;;;;;;;26.13;7.13;;;10.50;80.30;;;;;;5001238;28;20479;-72
2024/03/30 01:26:22;;;;;;;20.97;5.57;;;10.50;80.50;;;;;;5011642;28;20425;-71
2024/03/30 01:28:49;;;;;;;28.70;5.93;;;10.40;80.50;;;;;;5000971;28;20405;-73
2024/03/30 01:31:15;;;;;;;33.83;7.50;;;10.40;80.50;;;;;;5002595;28;20982;-71
2024/03/30 01:33:41;;;;;;;17.63;5.70;;;10.40;80.30;;;;;;5012047;28;20413;-72
2024/03/30 01:36:07;;;;;;;26.13;5.50;;;10.40;80.30;;;;;;5007317;28;20243;-73
2024/03/30 01:38:33;;;;;;;24.97;6.20;;;10.30;80.30;;;;;;5003425;28;20185;-72
2024/03/30 01:40:58;;;;;;;20.60;5.30;;;10.20;80.30;;;;;;5003955;28;20279;-73
2024/03/30 01:43:24;;;;;;;14.27;5.03;;;10.40;80.60;;;;;;5008141;28;20985;-73
2024/03/30 01:45:53;;;;;;;24.83;6.17;;;10.30;80.30;;;;;;5009610;28;20812;-73
2024/03/30 01:48:20;;;;;;;22.50;5.90;;;10.30;80.00;;;;;;5007157;28;20178;-73
2024/03/30 01:50:47;;;;;;;18.80;5.73;;;10.30;79.90;;;;;;5006233;28;20437;-71
2024/03/30 01:53:17;;;;;;;33.13;8.00;;;10.30;80.20;;;;;;5006728;28;20457;-72
2024/03/30 01:55:44;;;;;;;16.87;5.80;;;10.30;80.20;;;;;;5010159;28;20844;-71
2024/03/30 01:58:15;;;;;;;18.17;4.63;;;10.30;80.50;;;;;;5010986;28;20512;-73
2024/03/30 02:00:42;;;;;;;22.77;6.57;;;10.30;80.60;;;;;;5007163;28;20945;-73
2024/03/30 02:03:07;;;;;;;18.10;6.40;;;10.30;80.50;;;;;;5004354;28;20535;-72
2024/03/30 02:05:33;;;;;;;16.30;5.87;;;10.30;80.60;;;;;;5006282;28;20429;-72
2024/03/30 02:08:03;;;;;;;27.90;7.27;;;10.30;80.50;;;;;;5010620;28;20417;-71
2024/03/30 02:10:29;;;;;;;53.60;10.33;;;10.20;80.50;;;;;;4998758;28;20274;-71
2024/03/30 02:12:54;;;;;;;45.40;9.70;;;10.40;76.20;;;;;;5005517;28;20539;-72
2024/03/30 02:15:20;;;;;;;46.47;9.30;;;10.70;73.60;;;;;;5004559;28;20186;-72
2024/03/30 02:17:46;;;;;;;59.63;8.00;;;11.20;68.00;;;;;;5007196;28;20643;-71
2024/03/30 02:20:12;;;;;;;43.60;8.00;;;11.90;63.80;;;;;;5003354;28;20524;-72
2024/03/30 02:22:38;;;;;;;45.17;8.40;;;12.50;62.80;;;;;;5008128;28;20473;-74
2024/03/30 02:25:03;;;;;;;60.93;10.13;;;12.70;62.80;;;;;;5009912;28;20277;-72
2024/03/30 02:27:31;;;;;;;58.27;10.73;;;13.00;60.10;;;;;;5005172;28;20199;-73
2024/03/30 02:30:01;;;;;;;44.23;7.50;;;13.50;58.80;;;;;;5002848;28;20971;-73
2024/03/30 02:32:27;;;;;;;51.27;8.73;;;14.00;56.90;;;;;;5002855;28;20501;-71
2024/03/30 02:34:53;;;;;;;50.73;9.13;;;14.20;56.10;;;;;;5010355;28;20927;-74
2024/03/30 02:37:18;;;;;;;52.30;8.47;;;14.60;51.80;;;;;;5011245;28;20426;-73
2024/03/30 02:39:44;;;;;;;35.77;8.50;;;15.10;51.20;;;;;;5009778;28;20200;-74
2024/03/30 02:42:10;;;;;;;58.80;10.23;;;15.20;52.60;;;;;;5001914;28;20211;-74
2024/03/30 02:44:35;;;;;;;60.93;10.20;;;15.30;50.20;;;;;;5008480;28;20197;-72
2024/03/30 02:47:01;;;;;;;42.23;8.87;;;15.40;50.70;;;;;;5009724;28;20230;-71
2024/03/30 02:49:27;;;;;;;40.70;9.43;;;15.50;49.90;;;;;;5005514;28;20311;-73
2024/03/30 02:51:52;;;;;;;38.60;8.07;;;15.50;49.30;;;;;;5005681;28;20193;-75
2024/03/30 02:54:18;;;;;;;50.20;8.67;;;15.60;51.00;;;;;;5003450;28;20268;-76
2024/03/30 02:56:43;;;;;;;45.57;8.50;;;15.40;52.50;;;;;;5001330;28;20185;-74
2024/03/30 02:59:09;;;;;;;46.20;8.67;;;15.40;51.80;;;;;;5006360;28;20726;-74
2024/03/30 03:01:36;;;;;;;56.57;9.00;;;15.50;49.10;;;;;;5000222;28;20698;-74
2024/03/30 03:04:03;;;;;;;42.17;7.97;;;15.40;54.90;;;;;;5001813;28;20950;-74
2024/03/30 03:06:29;;;;;;;45.43;9.37;;;15.10;56.80;;;;;;5000564;28;20432;-73
2024/03/30 03:08:54;;;;;;;50.83;8.43;;;14.90;57.40;;;;;;5009198;28;20455;-73
2024/03/30 03:11:21;;;;;;;46.07;8.50;;;14.70;58.10;;;;;;5003776;28;20453;-73
2024/03/30 03:13:46;;;;;;;50.23;8.93;;;14.50;54.60;;;;;;5010696;28;20215;-74
2024/03/30 03:16:12;;;;;;;59.73;8.90;;;14.40;58.90;;;;;;5005893;28;20517;-74
2024/03/30 03:18:39;;;;;;;43.87;7.57;;;14.20;56.60;;;;;;5009366;28;20242;-74
2024/03/30 03:21:05;;;;;;;38.43;7.17;;;14.30;52.60;;;;;;5003886;28;20211;-75
2024/03/30 03:23:32;;;;;;;35.13;6.70;;;14.50;51.70;;;;;;5004867;28;20835;-74
2024/03/30 03:25:58;;;;;;;43.03;5.83;;;14.60;52.10;;;;;;5015205;28;20681;-73
2024/03/30 03:28:23;;;;;;;43.20;8.73;;;14.70;52.10;;;;;;5011594;28;21206;-75
2024/03/30 03:30:49;;;;;;;36.23;8.50;;;14.90;53.30;;;;;;5000548;28;20431;-75
2024/03/30 03:33:15;;;;;;;38.17;8.07;;;14.90;54.90;;;;;;5006604;28;20210;-74
2024/03/30 03:35:41;;;;;;;34.93;8.67;;;14.80;57.20;;;;;;5009766;28;20305;-74
2024/03/30 03:38:07;;;;;;;41.57;6.57;;;14.70;57.60;;;;;;5009080;28;20195;-73
2024/03/30 03:40:32;;;;;;;35.10;7.57;;;14.50;55.70;;;;;;5004829;28;20447;-73
2024/03/30 03:42:58;;;;;;;38.00;7.90;;;14.50;52.80;;;;;;5005640;28;20487;-73
2024/03/30 03:45:23;;;;;;;41.80;7.43;;;14.40;55.80;;;;;;5008949;28;20225;-73
2024/03/30 03:47:49;;;;;;;36.47;8.07;;;14.40;58.40;;;;;;5008130;28;20266;-73
2024/03/30 03:50:15;;;;;;;33.73;7.20;;;14.20;59.30;;;;;;5003212;28;20179;-72
2024/03/30 03:52:41;;;;;;;46.40;8.27;;;14.00;59.20;;;;;;5002942;28;20210;-74
2024/03/30 03:55:07;;;;;;;30.27;7.03;;;13.80;60.70;;;;;;5005946;28;20429;-72
2024/03/30 03:57:32;;;;;;;38.20;6.33;;;13.60;60.70;;;;;;5003056;28;20180;-72
2024/03/30 03:59:58;;;;;;;44.63;7.00;;;13.60;59.50;;;;;;5009016;28;20416;-72
2024/03/30 04:02:23;;;;;;;38.97;6.33;;;13.50;60.30;;;;;;4998208;28;20735;-74
2024/03/30 04:04:52;;;;;;;37.47;7.30;;;13.50;60.40;;;;;;5006511;28;20189;-73
2024/03/30 04:07:17;;;;;;;33.90;6.17;;;13.40;57.00;;;;;;5007692;28;20285;-72
2024/03/30 04:09:44;;;;;;;42.30;7.10;;;13.50;61.60;;;;;;5007700;28;20911;-73
2024/03/30 04:12:09;;;;;;;36.80;6.33;;;13.30;58.50;;;;;;4999443;28;20214;-73
2024/03/30 04:14:35;;;;;;;48.03;9.60;;;13.30;57.80;;;;;;5009520;28;20800;-73
2024/03/30 04:17:01;;;;;;;54.43;13.10;;;13.40;57.80;;;;;;5009263;28;20298;-75
2024/03/30 04:19:26;;;;;;;47.50;9.07;;;13.40;56.90;;;;;;5008657;28;20188;-71
2024/03/30 04:21:56;;;;;;;29.00;7.90;;;13.50;57.70;;;;;;5002422;28;20206;-73
2024/03/30 04:24:24;;;;;;;32.20;6.97;;;13.50;57.20;;;;;;5009249;28;20299;-73
2024/03/30 04:26:49;;;;;;;33.63;7.20;;;13.50;57.60;;;;;;5008286;28;20433;-74
2024/03/30 04:29:15;;;;;;;38.93;7.20;;;13.50;58.40;;;;;;5006632;28;20503;-72
2024/03/30 04:31:41;;;;;;;25.80;6.80;;;13.40;59.30;;;;;;5007590;28;20248;-73
2024/03/30 04:34:06;;;;;;;31.57;6.47;;;13.30;61.20;;;;;;5008243;28;20214;-70
2024/03/30 04:36:32;;;;;;;30.93;6.60;;;13.20;58.10;;;;;;5004132;28;20199;-72
2024/03/30 04:38:57;;;;;;;27.67;6.30;;;13.10;58.80;;;;;;5012402;28;20252;-72
2024/03/30 04:41:23;;;;;;;25.63;5.10;;;13.00;60.00;;;;;;5002079;28;20544;-72
2024/03/30 04:43:48;;;;;;;29.53;5.27;;;13.20;55.60;;;;;;5007686;28;20264;-73
2024/03/30 04:46:14;;;;;;;30.40;5.33;;;13.70;53.30;;;;;;5008544;28;20175;-75
2024/03/30 04:48:40;;;;;;;27.53;4.60;;;14.10;52.20;;;;;;5008813;28;20237;-72
2024/03/30 04:51:05;;;;;;;32.73;5.97;;;14.30;50.90;;;;;;5005131;28;20274;-73
2024/03/30 04:53:35;;;;;;;23.00;5.03;;;14.90;47.50;;;;;;5000559;28;20199;-72
2024/03/30 04:56:06;;;;;;;37.43;4.97;;;15.30;46.10;;;;;;5007894;28;20258;-73
2024/03/30 04:58:33;;;;;;;25.23;5.00;;;15.50;46.20;;;;;;5007831;28;21249;-73
2024/03/30 05:01:03;;;;;;;23.00;5.63;;;15.40;52.00;;;;;;5002785;28;20448;-73
2024/03/30 05:03:28;;;;;;;37.17;6.00;;;15.10;54.10;;;;;;5002637;28;20474;-73
2024/03/30 05:05:56;;;;;;;34.10;6.20;;;14.50;55.60;;;;;;5004962;28;20534;-72
2024/03/30 05:08:21;;;;;;;41.23;6.43;;;13.80;56.90;;;;;;5007473;28;20189;-73
2024/03/30 05:10:47;;;;;;;31.90;6.80;;;13.60;57.70;;;;;;5008612;28;20425;-72
2024/03/30 05:13:13;;;;;;;31.97;5.43;;;13.40;58.40;;;;;;5008652;28;20189;-71
2024/03/30 05:15:40;;;;;;;32.63;6.40;;;13.20;59.20;;;;;;5010030;28;20202;-72
2024/03/30 05:18:08;;;;;;;22.70;5.00;;;13.10;60.30;;;;;;5005355;28;20190;-73
2024/03/30 05:20:50;;;;;;;33.47;6.83;;;13.00;60.60;;;;;;5007921;28;20511;-73
2024/03/30 05:23:27;;;;;;;34.30;6.07;;;12.80;61.60;;;;;;5009024;28;20472;-72
2024/03/30 05:25:54;;;;;;;33.50;6.30;;;12.50;62.60;;;;;;5010099;28;20430;-73
2024/03/30 05:28:22;;;;;;;25.87;5.63;;;12.20;63.80;;;;;;5007172;28;20484;-73
2024/03/30 05:30:49;;;;;;;18.73;4.50;;;12.00;63.90;;;;;;5001770;28;21012;-71
2024/03/30 05:33:18;;;;;;;28.30;5.03;;;12.20;61.90;;;;;;5006837;28;20519;-73
2024/03/30 05:35:48;;;;;;;20.30;5.70;;;12.20;61.50;;;;;;5011074;28;20796;-72
2024/03/30 05:38:15;;;;;;;23.73;5.33;;;12.30;62.60;;;;;;5005477;28;20937;-73
2024/03/30 05:40:42;;;;;;;23.90;5.87;;;12.30;63.10;;;;;;4967086;28;1112115;-73
2024/03/30 05:43:07;;;;;;;21.53;4.80;;;12.40;63.10;;;;;;5005697;28;20698;-73
2024/03/30 05:45:36;;;;;;;23.67;4.73;;;12.50;63.40;;;;;;5005244;28;20428;-71
2024/03/30 05:48:01;;;;;;;39.37;6.27;;;12.50;63.50;;;;;;5006998;28;20183;-72
2024/03/30 05:50:29;;;;;;;22.63;4.87;;;12.60;63.50;;;;;;5005702;28;20460;-72
2024/03/30 05:52:55;;;;;;;21.13;5.90;;;12.70;63.50;;;;;;4999582;28;20465;-72
2024/03/30 05:55:21;;;;;;;27.93;5.10;;;12.70;63.80;;;;;;5004028;28;20452;-75
2024/03/30 05:57:47;;;;;;;21.50;4.50;;;12.60;64.20;;;;;;5005960;28;20416;-73
2024/03/30 06:00:14;;;;;;;27.13;5.43;;;12.50;64.50;;;;;;5004700;28;20240;-72
2024/03/30 06:02:44;;;;;;;25.97;5.40;;;12.60;65.10;;;;;;5007586;28;20489;-73
2024/03/30 06:05:11;;;;;;;18.93;4.90;;;12.60;65.30;;;;;;5009246;28;20496;-74
2024/03/30 06:07:37;;;;;;;27.30;5.80;;;12.60;65.30;;;;;;5001138;28;20445;-71
2024/03/30 06:10:04;;;;;;;24.93;5.70;;;12.70;65.30;;;;;;5005897;28;20528;-74
2024/03/30 06:12:30;;;;;;;28.40;5.80;;;12.80;63.40;;;;;;5000030;28;20492;-74
2024/03/30 06:14:56;;;;;;;25.90;5.40;;;12.90;64.80;;;;;;5003668;28;20433;-73
2024/03/30 06:17:22;;;;;;;28.23;5.07;;;13.00;65.00;;;;;;5010226;28;20418;-73
2024/03/30 06:19:47;;;;;;;28.37;6.00;;;13.20;64.70;;;;;;5017917;28;20461;-74
2024/03/30 06:22:13;;;;;;;24.27;5.10;;;13.30;64.20;;;;;;4999366;28;20694;-74
2024/03/30 06:24:39;;;;;;;18.83;5.10;;;13.40;63.80;;;;;;5005069;28;20182;-75
2024/03/30 06:27:08;;;;;;;26.73;5.17;;;13.40;64.20;;;;;;5005215;28;20278;-70
2024/03/30 06:29:36;;;;;;;40.47;5.50;;;13.40;64.50;;;;;;5004140;28;20189;-69
2024/03/30 06:32:02;;;;;;;21.37;6.43;;;13.50;61.50;;;;;;5004516;28;21089;-71
2024/03/30 06:34:27;;;;;;;26.90;6.00;;;13.80;63.10;;;;;;5006925;28;20987;-69
2024/03/30 06:36:53;;;;;;;30.53;6.20;;;13.90;63.10;;;;;;5006729;28;20442;-70
2024/03/30 06:39:19;;;;;;;25.87;6.17;;;13.90;62.50;;;;;;5005126;28;20250;-71
2024/03/30 06:44:30;;;;;;;34.33;7.23;;;14.30;60.40;;;;;;5006268;28;20217;-70
2024/03/30 06:46:55;;;;;;;32.70;7.00;;;14.40;62.00;;;;;;5003301;28;20552;-71
2024/03/30 06:49:21;;;;;;;26.60;5.67;;;14.50;59.90;;;;;;5008607;28;20506;-72
2024/03/30 06:51:47;;;;;;;30.00;7.53;;;14.60;56.00;;;;;;4995889;28;20207;-70
2024/03/30 06:54:13;;;;;;;25.17;6.30;;;14.80;59.20;;;;;;5002608;28;20184;-70
2024/03/30 06:56:39;;;;;;;30.27;7.07;;;14.80;59.60;;;;;;5001010;28;20419;-71
2024/03/30 06:59:04;;;;;;;34.83;7.20;;;14.80;59.70;;;;;;5007563;28;20442;-72
2024/03/30 07:01:30;;;;;;;29.23;6.53;;;14.70;60.30;;;;;;5005295;28;20268;-70
2024/03/30 07:03:56;;;;;;;32.53;7.57;;;14.70;60.40;;;;;;5004802;28;20697;-72
2024/03/30 07:06:22;;;;;;;30.47;6.30;;;14.70;60.00;;;;;;5002959;28;20186;-72
2024/03/30 07:08:48;;;;;;;35.17;7.60;;;14.80;57.20;;;;;;5001398;28;20182;-70
2024/03/30 07:11:14;;;;;;;44.20;9.37;;;15.20;52.00;;;;;;5003140;28;20463;-71
2024/03/30 07:13:41;;;;;;;43.27;8.70;;;15.40;51.00;;;;;;5004457;28;20441;-71
2024/03/30 07:16:07;;;;;;;38.13;7.30;;;15.80;49.50;;;;;;5001808;28;20695;-71
2024/03/30 07:18:32;;;;;;;31.63;5.93;;;15.90;49.30;;;;;;5002381;28;20437;-71
2024/03/30 07:20:58;;;;;;;36.10;5.97;;;16.30;47.70;;;;;;5001805;28;20469;-70
2024/03/30 07:23:23;;;;;;;32.13;5.33;;;16.50;45.80;;;;;;4996342;28;20213;-71
2024/03/30 07:25:49;;;;;;;34.90;6.50;;;16.80;44.60;;;;;;5006076;28;20547;-70
2024/03/30 07:28:14;;;;;;;36.73;6.27;;;17.00;44.10;;;;;;5000659;28;20228;-71
2024/03/30 07:30:40;;;;;;;33.50;7.00;;;17.20;43.20;;;;;;5001908;28;20227;-70
2024/03/30 07:33:06;;;;;;;36.53;6.50;;;17.30;43.70;;;;;;4999726;28;20222;-71
2024/03/30 07:35:33;;;;;;;47.60;7.10;;;17.40;43.00;;;;;;5002874;28;20187;-72
2024/03/30 07:37:59;;;;;;;31.80;6.67;;;17.40;42.60;;;;;;4999883;28;20421;-70
2024/03/30 07:40:25;;;;;;;48.33;8.03;;;17.40;42.30;;;;;;5003911;28;20440;-71
2024/03/30 07:42:50;;;;;;;33.03;9.07;;;17.50;42.20;;;;;;4999128;28;20618;-71
2024/03/30 07:45:16;;;;;;;38.00;7.60;;;17.50;42.60;;;;;;5005896;28;20967;-71
2024/03/30 07:47:42;;;;;;;38.77;11.23;;;17.40;43.10;;;;;;4998319;28;20185;-71
2024/03/30 07:50:07;;;;;;;48.03;14.00;;;17.40;43.20;;;;;;5006510;28;20213;-72
2024/03/30 07:52:33;;;;;;;59.33;12.40;;;17.50;43.90;;;;;;5000793;28;20655;-72
2024/03/30 07:54:58;;;;;;;34.17;7.30;;;17.40;44.20;;;;;;4997261;28;20194;-73
2024/03/30 07:57:24;;;;;;;28.57;6.00;;;17.40;45.90;;;;;;5000858;28;20193;-70
2024/03/30 07:59:50;;;;;;;47.43;8.23;;;17.30;44.10;;;;;;5006164;28;20190;-71
2024/03/30 08:02:15;;;;;;;34.67;6.40;;;17.40;43.90;;;;;;4994799;28;21005;-71
2024/03/30 08:04:41;;;;;;;35.97;6.17;;;17.20;44.60;;;;;;5000484;28;21005;-70
2024/03/30 08:07:07;;;;;;;40.10;8.30;;;17.20;45.70;;;;;;5001665;28;20183;-73
2024/03/30 08:09:33;;;;;;;36.43;7.57;;;16.90;48.60;;;;;;5006244;28;20198;-71
2024/03/30 08:11:58;;;;;;;32.83;6.33;;;16.60;51.40;;;;;;5001345;28;20217;-71
2024/03/30 08:14:24;;;;;;;39.00;7.03;;;16.60;52.40;;;;;;5006205;28;20205;-73
2024/03/30 08:16:49;;;;;;;38.80;6.57;;;16.60;52.80;;;;;;5006496;28;20209;-75
2024/03/30 08:19:16;;;;;;;39.57;7.00;;;16.60;52.20;;;;;;5005588;28;20183;-73
2024/03/30 08:21:42;;;;;;;34.30;6.80;;;16.50;52.00;;;;;;5003323;28;20747;-75
2024/03/30 08:24:07;;;;;;;32.77;7.00;;;16.30;51.80;;;;;;5014301;28;20472;-75
2024/03/30 08:26:33;;;;;;;31.30;6.57;;;16.10;52.60;;;;;;5014402;28;20178;-73
2024/03/30 08:28:59;;;;;;;41.20;8.00;;;16.10;53.40;;;;;;5010917;28;20339;-76
2024/03/30 08:31:24;;;;;;;31.90;7.00;;;16.10;54.00;;;;;;5005452;28;20657;-75
2024/03/30 08:33:52;;;;;;;36.17;6.80;;;16.00;54.50;;;;;;5012650;28;20269;-76
2024/03/30 08:36:18;;;;;;;30.80;6.53;;;15.90;54.60;;;;;;5019006;28;20178;-73
2024/03/30 08:38:44;;;;;;;39.17;7.50;;;15.90;54.90;;;;;;5015460;28;20437;-75
2024/03/30 08:41:10;;;;;;;23.57;5.87;;;15.80;54.40;;;;;;5008367;28;20476;-74
2024/03/30 08:43:37;;;;;;;40.57;7.20;;;15.80;54.90;;;;;;5010924;28;20663;-73
2024/03/30 08:46:03;;;;;;;32.03;6.63;;;15.90;56.10;;;;;;5009968;28;20756;-74
2024/03/30 08:48:32;;;;;;;32.70;7.73;;;16.00;56.90;;;;;;5011356;28;20428;-73
2024/03/30 08:50:58;;;;;;;34.13;6.63;;;16.00;57.40;;;;;;5003728;28;20288;-72
2024/03/30 08:53:23;;;;;;;29.10;5.90;;;16.00;57.20;;;;;;5008292;28;20586;-73
2024/03/30 08:55:57;;;;;;;33.40;5.93;;;16.00;56.90;;;;;;5005480;28;20659;-72
2024/03/30 08:58:23;;;;;;;26.40;5.60;;;16.00;57.20;;;;;;5004526;28;20232;-74
2024/03/30 09:00:49;;;;;;;29.27;8.00;;;16.00;57.40;;;;;;5006861;28;20428;-73
2024/03/30 09:03:14;;;;;;;28.80;7.57;;;16.00;57.80;;;;;;5011532;28;20214;-74
2024/03/30 09:05:40;;;;;;;38.73;6.50;;;15.90;58.80;;;;;;5005831;28;20801;-75
2024/03/30 09:08:06;;;;;;;26.30;5.60;;;15.90;57.80;;;;;;5005801;28;20281;-75
2024/03/30 09:10:31;;;;;;;26.33;6.40;;;15.90;57.40;;;;;;5010082;28;20919;-74
2024/03/30 09:12:57;;;;;;;36.00;7.67;;;15.90;57.30;;;;;;5009488;28;20212;-74
2024/03/30 09:15:23;;;;;;;34.67;7.40;;;15.90;57.00;;;;;;5013088;28;20844;-74
2024/03/30 09:17:49;;;;;;;31.37;5.70;;;15.80;57.70;;;;;;5012748;28;20265;-72
2024/03/30 09:20:15;;;;;;;41.40;7.93;;;15.60;58.40;;;;;;5008261;28;20512;-75
2024/03/30 09:22:42;;;;;;;36.20;7.77;;;15.60;58.80;;;;;;5005186;28;20221;-73
2024/03/30 09:25:13;;;;;;;31.03;7.07;;;15.60;58.70;;;;;;5014360;28;20212;-73
2024/03/30 09:27:41;;;;;;;46.20;8.40;;;15.60;58.90;;;;;;5013996;28;20427;-73
2024/03/30 09:30:08;;;;;;;36.57;7.17;;;15.40;59.10;;;;;;5009100;28;20960;-74
2024/03/30 09:32:39;;;;;;;31.53;6.80;;;15.40;59.20;;;;;;5006067;28;20456;-73
2024/03/30 09:35:06;;;;;;;42.97;8.20;;;15.60;59.30;;;;;;5012907;28;20540;-76
2024/03/30 09:37:32;;;;;;;37.30;6.40;;;15.60;59.20;;;;;;5007180;28;20543;-75
2024/03/30 09:39:57;;;;;;;31.30;6.27;;;15.50;58.50;;;;;;5001694;28;21039;-73
2024/03/30 09:42:28;;;;;;;33.43;6.70;;;15.60;58.90;;;;;;5001007;28;20329;-73
2024/03/30 09:44:54;;;;;;;25.23;5.77;;;15.60;60.60;;;;;;5005492;28;20265;-76
2024/03/30 09:47:22;;;;;;;18.03;6.00;;;15.60;60.90;;;;;;5012515;28;20921;-74
2024/03/30 09:49:49;;;;;;;28.00;5.83;;;15.70;60.70;;;;;;5011266;28;20445;-74
2024/03/30 09:52:16;;;;;;;26.40;7.13;;;15.70;60.70;;;;;;5004383;28;20470;-74
2024/03/30 09:54:42;;;;;;;16.67;5.87;;;15.80;60.30;;;;;;5007931;28;20467;-76
2024/03/30 09:57:09;;;;;;;24.50;6.53;;;15.80;60.30;;;;;;5012595;28;20439;-74
2024/03/30 09:59:34;;;;;;;38.13;6.97;;;15.90;59.90;;;;;;5011827;28;20419;-75
2024/03/30 10:02:00;;;;;;;32.70;6.90;;;15.90;60.00;;;;;;5006520;28;20632;-74
2024/03/30 10:04:25;;;;;;;40.77;7.50;;;15.90;60.40;;;;;;5014527;28;20216;-75
2024/03/30 10:06:55;;;;;;;27.57;8.03;;;15.80;60.90;;;;;;5009136;28;20716;-74
2024/03/30 10:09:25;;;;;;;27.50;7.50;;;15.90;60.70;;;;;;5009407;28;20668;-74
2024/03/30 10:11:58;;;;;;;38.90;9.10;;;15.90;60.70;;;;;;5004512;28;20687;-74
2024/03/30 10:14:30;;;;;;;38.93;7.80;;;16.00;61.20;;;;;;5008448;28;20503;-74
2024/03/30 10:16:56;;;;;;;52.90;8.60;;;16.10;61.20;;;;;;5014525;28;20580;-72
2024/03/30 10:19:22;;;;;;;35.00;6.57;;;15.80;60.90;;;;;;5017946;28;20565;-72
2024/03/30 10:21:50;;;;;;;25.77;6.50;;;15.70;60.60;;;;;;5012044;28;20208;-74
2024/03/30 10:24:19;;;;;;;39.63;8.80;;;15.60;60.30;;;;;;5015619;28;20479;-74
2024/03/30 10:26:44;;;;;;;34.93;7.53;;;15.70;59.70;;;;;;5009439;28;20980;-77
2024/03/30 10:29:10;;;;;;;26.00;7.10;;;15.70;59.30;;;;;;5008432;28;20449;-75
2024/03/30 10:31:40;;;;;;;30.43;7.00;;;15.80;59.50;;;;;;5006015;28;20465;-74
2024/03/30 10:34:08;;;;;;;35.90;7.83;;;15.90;60.10;;;;;;5006509;28;20202;-74
2024/03/30 10:36:34;;;;;;;37.80;7.97;;;16.10;59.70;;;;;;5010181;28;20437;-76
2024/03/30 10:39:04;;;;;;;41.27;8.60;;;16.20;59.70;;;;;;5005217;28;20456;-74
2024/03/30 10:41:30;;;;;;;30.57;8.10;;;16.30;60.00;;;;;;5000136;28;20464;-75
2024/03/30 10:43:56;;;;;;;42.23;8.00;;;16.40;56.60;;;;;;5004933;28;20469;-76
2024/03/30 10:46:25;;;;;;;39.10;8.60;;;16.40;56.90;;;;;;5014021;28;20962;-76
2024/03/30 10:48:51;;;;;;;39.93;7.50;;;16.40;56.90;;;;;;5008982;28;20187;-74
2024/03/30 10:51:18;;;;;;;44.50;9.00;;;16.50;55.20;;;;;;5003222;28;20483;-72
2024/03/30 10:53:44;;;;;;;40.80;8.50;;;16.60;58.70;;;;;;5007955;28;20417;-75
2024/03/30 10:56:10;;;;;;;42.30;8.03;;;16.60;58.80;;;;;;5009010;28;20812;-74
2024/03/30 10:58:37;;;;;;;53.37;10.20;;;16.50;59.30;;;;;;5014694;28;20595;-74
2024/03/30 11:01:05;;;;;;;33.07;8.50;;;16.50;59.90;;;;;;5008159;28;20463;-74
2024/03/30 11:03:31;;;;;;;48.83;9.60;;;16.50;59.70;;;;;;5010037;28;20555;-74
2024/03/30 11:05:59;;;;;;;35.87;7.77;;;16.60;59.90;;;;;;5010380;28;20413;-74
2024/03/30 11:08:26;;;;;;;37.33;7.77;;;16.60;59.70;;;;;;5006732;28;20800;-74
2024/03/30 11:10:52;;;;;;;31.03;7.70;;;16.70;59.30;;;;;;5007721;28;20405;-73
2024/03/30 11:13:17;;;;;;;45.77;8.97;;;16.90;59.20;;;;;;5006271;28;20431;-74
2024/03/30 11:15:43;;;;;;;31.23;7.20;;;17.00;59.60;;;;;;5009560;28;20421;-75
2024/03/30 11:18:37;;;;;;;38.17;8.07;;;17.10;59.90;;;;;;5011906;28;20179;-75
2024/03/30 11:21:12;;;;;;;45.03;9.47;;;17.20;59.70;;;;;;4998969;28;20222;-72
2024/03/30 11:23:42;;;;;;;29.33;8.37;;;17.30;58.10;;;;;;5005978;28;20556;-74
2024/03/30 11:26:09;;;;;;;39.77;9.50;;;17.40;57.70;;;;;;5010835;28;20427;-74
2024/03/30 11:28:56;;;;;;;45.73;9.87;;;17.30;57.30;;;;;;5006307;28;20887;-74
2024/03/30 11:31:29;;;;;;;53.73;10.80;;;17.20;57.00;;;;;;5000844;28;20453;-73
2024/03/30 11:34:06;;;;;;;33.73;8.30;;;17.10;56.80;;;;;;5010639;28;20417;-73
2024/03/30 11:36:42;;;;;;;39.17;7.63;;;17.20;56.80;;;;;;5007941;28;20453;-74
2024/03/30 11:39:16;;;;;;;34.07;8.23;;;17.30;57.30;;;;;;5010534;28;20433;-75
2024/03/30 11:41:46;;;;;;;39.90;8.33;;;17.50;57.30;;;;;;5003503;28;20465;-74
2024/03/30 11:44:18;;;;;;;37.23;9.23;;;17.60;57.00;;;;;;5002006;28;20894;-72
2024/03/30 11:46:44;;;;;;;32.23;8.30;;;17.70;56.80;;;;;;5007074;28;20414;-75
2024/03/30 11:49:11;;;;;;;39.83;8.37;;;17.80;56.90;;;;;;5004884;28;20491;-74
2024/03/30 11:51:40;;;;;;;24.30;7.20;;;17.90;56.80;;;;;;5004313;28;20542;-75
2024/03/30 11:54:38;;;;;;;25.03;7.60;;;18.00;56.60;;;;;;5008671;28;20515;-73
2024/03/30 11:57:14;;;;;;;44.43;9.07;;;18.10;56.50;;;;;;4981455;28;20430;-73
2024/03/30 11:59:48;;;;;;;27.67;7.63;;;18.20;55.70;;;;;;4977895;28;20425;-74
2024/03/30 12:02:15;;;;;;;34.50;7.73;;;18.20;56.00;;;;;;4979225;28;20487;-75
2024/03/30 12:04:45;;;;;;;44.90;9.90;;;18.30;55.70;;;;;;4979626;28;20558;-75
2024/03/30 12:07:13;;;;;;;45.63;8.63;;;18.20;56.60;;;;;;4984108;28;20438;-74
2024/03/30 12:09:39;;;;;;;46.93;8.67;;;17.90;57.20;;;;;;4983991;28;20491;-73
2024/03/30 12:12:17;;;;;;;37.77;9.27;;;18.00;57.60;;;;;;4979067;28;20860;-73
2024/03/30 12:14:45;;;;;;;36.13;9.87;;;17.90;58.80;;;;;;4980435;28;20434;-74
2024/03/30 12:17:11;;;;;;;35.10;11.13;;;17.90;58.90;;;;;;4972919;28;20514;-75
2024/03/30 12:19:39;;;;;;;47.63;11.43;;;17.90;59.20;;;;;;4988880;28;20450;-74
2024/03/30 12:22:05;;;;;;;36.10;10.63;;;17.70;59.70;;;;;;4965745;28;20828;-74
2024/03/30 12:24:35;;;;;;;36.17;10.50;;;17.70;59.90;;;;;;4985820;28;21335;-73
2024/03/30 12:27:01;;;;;;;28.40;8.60;;;17.60;59.70;;;;;;4981259;28;20434;-74
2024/03/30 12:29:27;;;;;;;34.13;9.00;;;17.80;59.90;;;;;;4988882;28;20435;-72
2024/03/30 12:31:53;;;;;;;32.93;9.30;;;18.00;59.70;;;;;;5000608;28;20470;-73
2024/03/30 12:34:21;;;;;;;49.47;11.00;;;18.00;59.60;;;;;;5007648;28;20198;-76
2024/03/30 12:36:46;;;;;;;29.07;9.03;;;18.00;59.20;;;;;;5007497;28;20446;-74